Flight Track Log - Related Links

Times and Time Zones

All times are in EDT time to prevent confusion due to time zone crossing. See the N217TM flight status page for this flight to view local times or setup timezone preferences in your user account.

Time Position Orientation Groundspeed Altitude Reporting Facility
EDT Latitude Longitude Course Direction KTS MPH feet Rate Location/Type
Tue 10:56:07 AM 32.7667 -96.5333 360° North 135 155 800  Level Dallas / Fort Worth TRACON
Tue 10:56:19 AM 32.7667 -96.5333 23° Northeast 121 139 1,300 917 Climbing Dallas / Fort Worth TRACON
Tue 10:57:19 AM 32.8000 -96.5167 23° Northeast 101 116 1,900 709 Climbing Dallas / Fort Worth TRACON
Tue 10:58:09 AM 32.8192 -96.5119 12° North 122 140 2,600 850 Climbing Fort Worth Center
Tue 10:59:12 AM 32.7875 -96.4736 134° Southeast 155 178 3,500 672 Climbing Fort Worth Center
Tue 11:00:14 AM 32.7386 -96.4803 187° South 176 203 4,000 242 Climbing Fort Worth Center
Tue 11:01:16 AM 32.6786 -96.5097 202° Southwest 214 246 4,000  Level Fort Worth Center
Tue 11:02:18 AM 32.6175 -96.5378 201° Southwest 233 268 4,000  Level Fort Worth Center
Tue 11:03:20 AM 32.5494 -96.5650 199° South 239 275 4,000  Level Fort Worth Center
Tue 11:04:22 AM 32.4844 -96.5878 196° South 240 276 4,000 97 Level Fort Worth Center
Tue 11:05:24 AM 32.4433 -96.6442 229° Southwest 228 262 4,200 968 Climbing Fort Worth Center
Tue 11:06:26 AM 32.4050 -96.6961 229° Southwest 197 227 6,000 1,742 Climbing Fort Worth Center
Tue 11:07:28 AM 32.3778 -96.7406 234° Southwest 174 200 7,800 1,790 Climbing Fort Worth Center
Tue 11:08:30 AM 32.3483 -96.7811 229° Southwest 157 181 9,700 1,839 Climbing Fort Worth Center
Tue 11:09:32 AM 32.3069 -96.7936 194° South 168 193 11,600 1,104 Climbing Fort Worth Center
Tue 11:10:35 AM 32.2594 -96.8186 204° Southwest 180 207 12,000 624 Climbing Fort Worth Center
Tue 11:11:37 AM 32.2194 -96.8522 215° Southwest 195 224 12,900 1,258 Climbing Fort Worth Center
Tue 11:12:39 AM 32.1819 -96.8836 215° Southwest 179 206 14,600 1,548 Climbing Fort Worth Center
Tue 11:13:41 AM 32.1492 -96.9100 214° Southwest 153 176 16,100 1,597 Climbing Fort Worth Center
Tue 11:14:43 AM 32.1122 -96.9411 216° Southwest 140 161 17,900 1,403 Climbing Fort Worth Center
Tue 11:15:45 AM 32.0817 -96.9672 216° Southwest 137 158 19,000 532 Climbing Fort Worth Center
Tue 11:16:47 AM 32.0439 -96.9992 216° Southwest 158 182 19,000  Level Fort Worth Center
Tue 11:17:49 AM 32.0014 -97.0356 216° Southwest 182 209 19,000  Level Fort Worth Center
Tue 11:18:51 AM 31.9589 -97.0706 215° Southwest 184 212 19,000  Level Fort Worth Center
Tue 11:19:54 AM 31.9153 -97.1075 216° Southwest 189 217 19,000 432 Level Fort Worth Center
Tue 11:20:56 AM 31.8644 -97.1494 215° Southwest 187 215 19,900 484 Climbing Fort Worth Center
Tue 11:21:58 AM 31.8225 -97.1844 215° Southwest 184 212 20,000 48 Climbing Fort Worth Center
Tue 11:23:00 AM 31.7767 -97.2242 216° Southwest 200 230 20,000  Level Fort Worth Center
Tue 11:24:02 AM 31.7300 -97.2628 215° Southwest 201 231 20,000  Level Fort Worth Center
Tue 11:25:04 AM 31.6831 -97.3019 215° Southwest 205 236 20,000  Level Fort Worth Center
Tue 11:26:06 AM 31.6364 -97.3406 215° Southwest 205 236 20,000  Level Fort Worth Center
Tue 11:27:08 AM 31.5803 -97.3872 215° Southwest 205 236 20,000  Level Fort Worth Center
Tue 11:28:10 AM 31.5333 -97.4264 215° Southwest 205 236 20,000  Level Fort Worth Center
Tue 11:29:13 AM 31.4850 -97.4658 215° Southwest 206 237 20,000  Level Fort Worth Center
Tue 11:30:15 AM 31.4372 -97.5050 215° Southwest 207 238 20,000  Level Fort Worth Center
Tue 11:31:17 AM 31.3897 -97.5461 216° Southwest 209 241 20,000  Level Fort Worth Center
Tue 11:32:19 AM 31.3314 -97.5939 215° Southwest 210 242 20,000  Level Fort Worth Center
Tue 11:33:21 AM 31.2831 -97.6339 215° Southwest 213 245 20,000  Level Fort Worth Center
Tue 11:34:23 AM 31.2336 -97.6722 214° Southwest 212 244 20,000  Level Fort Worth Center
Tue 11:35:25 AM 31.1850 -97.7147 217° Southwest 215 247 20,000  Level Fort Worth Center
Tue 11:36:27 AM 31.1369 -97.7531 214° Southwest 214 246 20,000  Level Fort Worth Center
Tue 11:37:29 AM 31.0881 -97.7936 215° Southwest 214 246 20,000  Level Fort Worth Center
Tue 11:38:31 AM 31.0289 -97.8425 215° Southwest 214 246 20,000  Level Fort Worth Center
Tue 11:39:34 AM 30.9808 -97.8808 214° Southwest 213 245 20,000  Level Fort Worth Center
Tue 11:40:36 AM 30.9303 -97.9211 214° Southwest 215 247 20,000  Level Fort Worth Center
Tue 11:41:38 AM 30.8803 -97.9625 215° Southwest 216 249 20,000  Level Fort Worth Center
Tue 11:42:24 AM 30.8392 -97.9958 215° Southwest 216 249 20,000  Level Houston Center
Tue 11:43:26 AM 30.7897 -98.0364 215° Southwest 216 249 20,000  Level Houston Center
Tue 11:44:29 AM 30.7386 -98.0761 214° Southwest 219 252 20,000  Level Houston Center
Tue 11:45:31 AM 30.6894 -98.1175 216° Southwest 219 252 20,000  Level Houston Center
Tue 11:46:33 AM 30.6378 -98.1581 214° Southwest 221 254 20,000  Level Houston Center
Tue 11:47:35 AM 30.5789 -98.2061 215° Southwest 220 253 20,000  Level Houston Center
Tue 11:48:37 AM 30.5283 -98.2472 215° Southwest 220 253 20,000  Level Houston Center
Tue 11:49:39 AM 30.4783 -98.2875 215° Southwest 220 253 20,000  Level Houston Center
Tue 11:50:42 AM 30.4283 -98.3286 215° Southwest 220 253 20,000  Level Houston Center
Tue 11:51:44 AM 30.3786 -98.3686 215° Southwest 220 253 20,000  Level Houston Center
Tue 11:52:46 AM 30.3281 -98.4097 215° Southwest 220 253 20,000  Level Houston Center
Tue 11:53:48 AM 30.2625 -98.4611 214° Southwest 224 258 20,000  Level Houston Center
Tue 11:54:50 AM 30.2111 -98.5025 215° Southwest 224 258 20,000  Level Houston Center
Tue 11:55:52 AM 30.1544 -98.5486 215° Southwest 228 262 20,000  Level Houston Center
Tue 11:56:55 AM 30.1011 -98.5906 214° Southwest 229 264 20,000  Level Houston Center
Tue 11:57:57 AM 30.0453 -98.6347 214° Southwest 229 264 20,000  Level Houston Center
Tue 11:58:59 AM 29.9944 -98.6761 215° Southwest 227 261 20,000  Level Houston Center
Tue 12:00:01 PM 29.9467 -98.7142 215° Southwest 213 245 20,000  Level Houston Center
Tue 12:01:03 PM 29.8942 -98.7553 214° Southwest 212 244 20,000 -576 Level Houston Center
Tue 12:02:06 PM 29.8444 -98.7947 215° Southwest 213 245 18,800 -1,536 Descending Houston Center
Tue 12:03:08 PM 29.7814 -98.8439 214° Southwest 249 287 16,800 -1,887 Descending Houston Center
Tue 12:04:10 PM 29.7267 -98.8881 215° Southwest 244 281 14,900 -1,935 Descending Houston Center
Tue 12:05:12 PM 29.6703 -98.9325 214° Southwest 234 269 12,800 -1,887 Descending Houston Center
Tue 12:06:14 PM 29.6181 -98.9742 215° Southwest 232 267 11,000 -1,839 Descending Houston Center
Tue 12:07:16 PM 29.5658 -99.0153 214° Southwest 217 250 9,000 -1,935 Descending Houston Center

Login

Don't have an account? Register now (free) for customized features, flight alerts, and more!